Terminal Aerodrome Forecast
Issued by NWS El Paso, TX

Home | Current Version | Previous Version | Text Only | Print | Product List | Glossary On
Versions: 1 2 3 4 5 6 7 8 9 10 11 12 13
000
FTUS44 KEPZ 272300
TAFELP
TAF
KELP 272328Z 2800/2824 23004KT P6SM FEW150 BKN250
     FM280300 12005KT P6SM SCT250
     FM281900 23012KT P6SM SCT250=

USA.gov is the U.S. government's official web portal to all federal, state and local government web resources and services.